Time;durP1;ratioP1;P1;durP2;ratioP2;P2;SDS_P1;SDS_P2;PMS_P1;PMS_P2;Temp;Humidity;BMP_temperature;BMP_pressure;BME280_temperature;BME280_humidity;BME280_pressure;Samples;Min_cycle;Max_cycle;Signal;HPM_P1;HPM_P2
2023/07/26 00:02:17;;;;;;;;;0.25;0.25;;;;;13.17;69.34;99401.72;5035963;28;8846;-61
2023/07/26 00:04:45;;;;;;;;;0.00;0.00;;;;;13.14;70.00;99402.00;5034013;28;8840;-60
2023/07/26 00:07:12;;;;;;;;;1.00;1.00;;;;;13.11;69.53;99409.47;5034530;28;8832;-59
2023/07/26 00:09:40;;;;;;;;;0.00;0.00;;;;;13.09;69.91;99400.78;5035800;28;8836;-58
2023/07/26 00:12:07;;;;;;;;;2.00;2.00;;;;;13.01;69.90;99396.19;5019510;28;8826;-59
2023/07/26 00:14:35;;;;;;;;;1.00;1.00;;;;;12.94;69.94;99402.25;5015930;28;8830;-59
2023/07/26 00:17:03;;;;;;;;;1.00;1.00;;;;;12.88;70.08;99402.84;5016430;28;8838;-57
2023/07/26 00:19:30;;;;;;;;;1.00;1.00;;;;;12.81;70.27;99399.94;5034976;28;8832;-59
2023/07/26 00:21:59;;;;;;;;;1.00;1.00;;;;;12.78;70.72;99396.72;5035981;28;8858;-60
2023/07/26 00:24:27;;;;;;;;;2.00;2.00;;;;;12.73;70.51;99394.50;5035212;28;8828;-60
2023/07/26 00:26:55;;;;;;;;;1.00;1.00;;;;;12.71;70.69;99395.63;5035781;28;8847;-58
2023/07/26 00:29:23;;;;;;;;;1.00;1.00;;;;;12.69;70.76;99400.28;5027021;28;8845;-57
2023/07/26 00:31:52;;;;;;;;;3.00;3.00;;;;;12.68;71.03;99395.94;5038659;28;8819;-58
2023/07/26 00:34:20;;;;;;;;;1.00;1.00;;;;;12.67;70.50;99396.91;5016986;28;8872;-58
2023/07/26 00:36:47;;;;;;;;;0.00;0.00;;;;;12.65;70.29;99401.56;5016340;28;8834;-59
2023/07/26 00:39:15;;;;;;;;;1.00;1.00;;;;;12.65;70.34;99399.75;5016922;28;8817;-61
2023/07/26 00:41:43;;;;;;;;;0.50;0.50;;;;;12.65;70.79;99397.06;5015986;28;8841;-61
2023/07/26 00:44:10;;;;;;;;;1.00;0.00;;;;;12.67;70.60;99397.75;5016506;28;9433;-58
2023/07/26 00:46:38;;;;;;;;;1.00;1.00;;;;;12.69;70.98;99400.28;5016366;28;8842;-60
2023/07/26 00:49:06;;;;;;;;;1.00;1.00;;;;;12.71;70.53;99400.97;5015562;28;8810;-59
2023/07/26 00:51:34;;;;;;;;;1.00;1.00;;;;;12.75;70.95;99402.38;5032271;28;9037;-59
2023/07/26 00:54:03;;;;;;;;;1.50;1.00;;;;;12.78;70.91;99402.91;5026000;28;8827;-58
2023/07/26 00:56:31;;;;;;;;;1.00;1.00;;;;;12.81;70.60;99404.44;5015926;28;9553;-59
2023/07/26 00:58:59;;;;;;;;;1.00;1.00;;;;;12.83;70.33;99411.31;5025282;28;8812;-59
2023/07/26 01:01:27;;;;;;;;;0.75;0.75;;;;;12.85;69.90;99408.50;5035791;28;8866;-60
2023/07/26 01:03:54;;;;;;;;;1.00;1.00;;;;;12.87;70.40;99401.16;5028283;28;9491;-59
2023/07/26 01:06:22;;;;;;;;;1.00;1.00;;;;;12.90;70.00;99408.91;5029716;28;8824;-58
2023/07/26 01:08:50;;;;;;;;;1.00;1.00;;;;;12.93;70.36;99405.91;5033227;28;8820;-58
2023/07/26 01:11:17;;;;;;;;;1.00;1.00;;;;;12.96;69.95;99401.16;5033133;28;8808;-58
2023/07/26 01:13:45;;;;;;;;;3.00;3.00;;;;;12.99;70.08;99400.00;5030888;28;8804;-58
2023/07/26 01:16:13;;;;;;;;;1.00;1.00;;;;;13.00;70.31;99402.50;5034924;28;8831;-59
2023/07/26 01:18:40;;;;;;;;;0.75;0.75;;;;;13.02;69.98;99405.03;5034780;28;8808;-59
2023/07/26 01:21:08;;;;;;;;;3.00;3.00;;;;;13.05;70.04;99407.44;5035095;28;8816;-58
2023/07/26 01:23:38;;;;;;;;;1.00;1.00;;;;;13.05;70.09;99407.44;5035329;28;8971;-60
2023/07/26 01:26:06;;;;;;;;;1.50;1.00;;;;;13.06;69.87;99406.44;5035252;28;8839;-58
2023/07/26 01:28:33;;;;;;;;;1.50;1.50;;;;;13.06;70.06;99411.78;5034888;28;8815;-58
2023/07/26 01:31:01;;;;;;;;;1.00;1.00;;;;;13.06;70.36;99406.44;5034632;28;8828;-60
2023/07/26 01:33:29;;;;;;;;;1.50;1.50;;;;;13.09;70.43;99411.47;5035103;28;8832;-60
2023/07/26 01:35:56;;;;;;;;;4.00;3.00;;;;;13.12;69.87;99405.81;5035515;28;9518;-59
2023/07/26 01:38:24;;;;;;;;;2.00;2.00;;;;;13.16;70.03;99416.09;5035113;28;8867;-61
2023/07/26 01:40:52;;;;;;;;;1.50;1.50;;;;;13.19;69.84;99412.25;5035166;28;8808;-59
2023/07/26 01:43:19;;;;;;;;;0.50;0.50;;;;;13.21;69.33;99413.78;5035257;28;8950;-59
2023/07/26 01:45:47;;;;;;;;;1.00;1.00;;;;;13.23;70.09;99411.78;5034792;28;8812;-60
2023/07/26 01:48:14;;;;;;;;;1.00;1.00;;;;;13.26;69.54;99410.63;5034957;28;8844;-61
2023/07/26 01:50:42;;;;;;;;;0.50;0.50;;;;;13.25;69.98;99412.50;5034651;28;8851;-58
2023/07/26 01:53:09;;;;;;;;;1.00;1.00;;;;;13.28;69.57;99422.88;5035091;28;8843;-58
2023/07/26 01:55:37;;;;;;;;;1.00;1.00;;;;;13.27;69.98;99415.84;5034204;28;9593;-59
2023/07/26 01:58:05;;;;;;;;;1.00;1.00;;;;;13.28;69.76;99412.16;5027959;28;8872;-58
2023/07/26 02:00:33;;;;;;;;;1.00;1.00;;;;;13.29;69.94;99407.69;5014570;28;8826;-59
2023/07/26 02:03:01;;;;;;;;;0.75;0.75;;;;;13.29;69.97;99408.50;5015535;28;8841;-58
2023/07/26 02:05:29;;;;;;;;;1.50;1.50;;;;;13.27;69.60;99409.63;5014303;28;8832;-59
2023/07/26 02:07:56;;;;;;;;;1.00;1.00;;;;;13.23;70.09;99409.09;5014829;28;9539;-60
2023/07/26 02:10:24;;;;;;;;;0.00;0.00;;;;;13.18;70.08;99405.22;5018221;28;8842;-60
2023/07/26 02:12:51;;;;;;;;;1.00;1.00;;;;;13.13;70.44;99412.88;5014569;28;8843;-58
2023/07/26 02:15:20;;;;;;;;;1.00;1.00;;;;;13.07;71.11;99402.78;5033960;28;8820;-58
2023/07/26 02:17:47;;;;;;;;;0.25;0.25;;;;;13.02;70.75;99410.38;5033323;28;8828;-58
2023/07/26 02:20:15;;;;;;;;;0.00;0.00;;;;;12.97;70.75;99408.16;5014586;28;8825;-58
2023/07/26 02:22:43;;;;;;;;;2.50;2.50;;;;;12.93;70.90;99412.09;5014195;28;8872;-58
2023/07/26 02:25:11;;;;;;;;;2.00;2.00;;;;;12.92;70.69;99414.94;5015067;28;8799;-59
2023/07/26 02:27:38;;;;;;;;;2.00;2.00;;;;;12.90;70.63;99415.06;5014310;28;8837;-58
2023/07/26 02:30:06;;;;;;;;;3.00;3.00;;;;;12.90;70.98;99414.25;5031701;28;9458;-58
2023/07/26 02:32:33;;;;;;;;;1.00;1.00;;;;;12.89;70.85;99412.53;5034134;28;8836;-60
2023/07/26 02:35:01;;;;;;;;;1.00;1.00;;;;;12.89;71.35;99412.53;5033912;28;8847;-58
2023/07/26 02:37:29;;;;;;;;;3.00;3.00;;;;;12.90;70.52;99412.41;5034230;28;8855;-58
2023/07/26 02:39:56;;;;;;;;;1.00;1.00;;;;;12.94;70.97;99408.47;5030911;28;8797;-60
2023/07/26 02:42:25;;;;;;;;;3.00;3.00;;;;;12.97;70.21;99418.00;5034313;28;8834;-60
2023/07/26 02:44:53;;;;;;;;;2.50;2.50;;;;;12.98;70.87;99412.53;5033884;28;8855;-58
2023/07/26 02:47:21;;;;;;;;;1.00;1.00;;;;;13.02;70.76;99405.91;5033695;28;8832;-58
2023/07/26 02:49:49;;;;;;;;;1.00;1.00;;;;;13.07;70.08;99410.78;5033713;28;8842;-59
2023/07/26 02:52:16;;;;;;;;;2.00;1.00;;;;;13.10;70.72;99405.97;5033569;28;8832;-58
2023/07/26 02:54:44;;;;;;;;;3.00;3.00;;;;;13.14;70.13;99414.53;5032900;28;8824;-58
2023/07/26 02:57:12;;;;;;;;;2.00;2.00;;;;;13.18;70.08;99415.91;5016848;28;8810;-60
2023/07/26 02:59:39;;;;;;;;;3.00;3.00;;;;;13.21;70.25;99415.63;5013562;28;8854;-58
2023/07/26 03:02:07;;;;;;;;;3.00;3.00;;;;;13.25;70.48;99414.31;5013658;28;8818;-59
2023/07/26 03:04:35;;;;;;;;;3.00;3.00;;;;;13.26;70.42;99407.97;5013794;28;8830;-59
2023/07/26 03:07:03;;;;;;;;;3.00;3.00;;;;;13.27;70.00;99406.97;5014749;28;8827;-59
2023/07/26 03:09:30;;;;;;;;;1.50;1.00;;;;;13.28;69.97;99412.16;5014863;28;8818;-60
2023/07/26 03:11:58;;;;;;;;;3.25;3.25;;;;;13.28;70.09;99409.50;5013453;28;8826;-59
2023/07/26 03:14:25;;;;;;;;;0.50;0.50;;;;;13.29;70.52;99407.69;5013762;28;8923;-59
2023/07/26 03:16:53;;;;;;;;;3.00;2.50;;;;;13.30;70.50;99414.72;5027387;28;8824;-58
2023/07/26 03:19:26;;;;;;;;;3.00;3.00;;;;;13.31;70.53;99413.72;5033362;28;8816;-58
2023/07/26 03:21:54;;;;;;;;;3.25;3.00;;;;;13.32;70.01;99408.22;5033505;28;9546;-59
2023/07/26 03:24:21;;;;;;;;;3.75;3.50;;;;;13.35;70.59;99415.09;5033184;28;8835;-58
2023/07/26 03:26:50;;;;;;;;;1.00;1.00;;;;;13.37;70.21;99426.47;5033228;28;8924;-59
2023/07/26 03:29:18;;;;;;;;;3.00;3.00;;;;;13.41;69.87;99465.28;5032001;28;8820;-59
2023/07/26 03:31:45;;;;;;;;;0.50;0.50;;;;;13.43;70.38;99472.16;5033215;28;8828;-59
2023/07/26 03:34:13;;;;;;;;;2.00;2.00;;;;;13.38;69.73;99462.94;5032786;28;8837;-59
2023/07/26 03:36:41;;;;;;;;;2.00;2.00;;;;;13.28;70.24;99459.50;5033011;28;8848;-60
2023/07/26 03:39:09;;;;;;;;;3.25;3.25;;;;;13.16;70.50;99449.97;5033002;28;8812;-59
2023/07/26 03:41:36;;;;;;;;;1.00;1.00;;;;;13.07;70.95;99448.22;5032771;28;8840;-59
2023/07/26 03:44:04;;;;;;;;;5.00;5.00;;;;;12.97;71.21;99440.25;5034001;28;8867;-58
2023/07/26 03:46:31;;;;;;;;;2.50;2.50;;;;;12.91;71.36;99445.31;5032841;28;8828;-58
2023/07/26 03:49:00;;;;;;;;;3.75;3.75;;;;;12.88;71.56;99445.59;5033207;28;8852;-61
2023/07/26 03:51:28;;;;;;;;;3.50;3.00;;;;;12.83;71.66;99438.03;5033117;28;8836;-59
2023/07/26 03:53:55;;;;;;;;;3.00;3.00;;;;;12.82;71.43;99438.16;5032716;28;8824;-59
2023/07/26 03:56:23;;;;;;;;;3.00;3.00;;;;;12.79;71.60;99430.47;5032914;28;8805;-59
2023/07/26 03:58:51;;;;;;;;;3.00;3.00;;;;;12.77;71.22;99438.63;5032750;28;8831;-59
2023/07/26 04:01:18;;;;;;;;;4.00;4.00;;;;;12.77;71.54;99437.78;5032858;28;8847;-59
2023/07/26 04:03:46;;;;;;;;;2.00;2.00;;;;;12.76;72.02;99438.78;5032663;28;8871;-59
2023/07/26 04:06:14;;;;;;;;;3.75;3.75;;;;;12.76;72.14;99439.63;5031870;28;8836;-60
2023/07/26 04:08:41;;;;;;;;;5.00;3.75;;;;;12.78;72.05;99443.00;5031508;28;8867;-59
2023/07/26 04:11:09;;;;;;;;;4.00;4.00;;;;;12.80;71.88;99438.34;5012310;28;8826;-58
2023/07/26 04:13:37;;;;;;;;;3.50;3.50;;;;;12.83;71.99;99442.56;5012761;28;9518;-58
2023/07/26 04:16:04;;;;;;;;;4.50;4.50;;;;;12.84;71.44;99442.38;5012300;28;9534;-58
2023/07/26 04:18:32;;;;;;;;;4.50;4.50;;;;;12.81;71.71;99433.81;5012133;28;8830;-60
2023/07/26 04:20:59;;;;;;;;;5.50;5.50;;;;;12.75;72.07;99440.59;5029736;28;8820;-58
2023/07/26 04:23:27;;;;;;;;;6.00;4.00;;;;;12.67;72.25;99443.19;5030187;28;8816;-59
2023/07/26 04:25:54;;;;;;;;;6.25;4.00;;;;;12.60;72.52;99442.06;5031656;28;9524;-59
2023/07/26 04:28:22;;;;;;;;;3.50;3.00;;;;;12.54;72.27;99442.66;5031919;28;8844;-58
2023/07/26 04:30:50;;;;;;;;;3.00;3.00;;;;;12.50;72.41;99443.09;5014945;28;8834;-58
2023/07/26 04:33:21;;;;;;;;;4.00;4.00;;;;;12.49;72.83;99449.44;5011763;28;8858;-58
2023/07/26 04:35:48;;;;;;;;;3.00;3.00;;;;;12.49;72.53;99454.78;5011396;28;8826;-59
2023/07/26 04:38:16;;;;;;;;;1.00;1.00;;;;;12.50;72.44;99448.44;5013084;28;8860;-59
2023/07/26 04:40:46;;;;;;;;;6.25;5.00;;;;;12.50;73.03;99448.44;5029703;28;9509;-58
2023/07/26 04:43:13;;;;;;;;;3.00;3.00;;;;;12.52;72.67;99449.13;5035444;28;8822;-57
2023/07/26 04:45:41;;;;;;;;;6.00;5.50;;;;;12.56;72.87;99455.88;5020487;28;8873;-57
2023/07/26 04:48:08;;;;;;;;;4.00;4.00;;;;;12.61;72.65;99480.34;5015545;28;8830;-58
2023/07/26 04:50:36;;;;;;;;;2.25;2.00;;;;;12.68;72.37;99476.91;5015689;28;8823;-59
2023/07/26 04:53:04;;;;;;;;;4.00;4.00;;;;;12.78;72.39;99468.88;5015517;28;8833;-58
2023/07/26 04:55:31;;;;;;;;;4.00;4.00;;;;;12.85;72.04;99477.97;5023949;28;8836;-60
2023/07/26 04:57:59;;;;;;;;;4.00;3.00;;;;;12.89;72.19;99484.69;5035278;28;8828;-62
2023/07/26 05:00:27;;;;;;;;;6.00;6.00;;;;;12.91;72.03;99488.09;5022781;28;8829;-59
2023/07/26 05:02:54;;;;;;;;;2.50;2.50;;;;;12.89;72.29;99490.03;5015387;28;8861;-59
2023/07/26 05:05:22;;;;;;;;;6.25;5.00;;;;;12.86;71.91;99496.53;5022130;28;8828;-60
2023/07/26 05:07:49;;;;;;;;;6.00;4.50;;;;;12.84;72.20;99487.00;5034882;28;8835;-60
2023/07/26 05:10:17;;;;;;;;;7.00;6.00;;;;;12.82;72.76;99489.78;5030946;28;8816;-58
2023/07/26 05:12:45;;;;;;;;;6.25;5.00;;;;;12.83;72.66;99493.31;5034765;28;9575;-59
2023/07/26 05:15:13;;;;;;;;;6.25;6.00;;;;;12.82;72.80;99496.97;5027356;28;8825;-58
2023/07/26 05:17:41;;;;;;;;;6.75;6.50;;;;;12.80;72.53;99491.78;5029016;28;8844;-57
2023/07/26 05:20:08;;;;;;;;;5.00;3.50;;;;;12.81;72.57;99495.28;5034531;28;8832;-59
2023/07/26 05:22:36;;;;;;;;;4.00;4.00;;;;;12.81;72.91;99489.94;5034879;28;8836;-58
2023/07/26 05:25:04;;;;;;;;;6.00;6.00;;;;;12.82;73.24;99500.47;5034617;28;8812;-59
2023/07/26 05:27:31;;;;;;;;;5.50;4.00;;;;;12.84;72.83;99493.16;5034361;28;8832;-58
2023/07/26 05:29:59;;;;;;;;;6.75;6.00;;;;;12.89;73.11;99487.38;5034506;28;8978;-58
2023/07/26 05:32:27;;;;;;;;;6.00;6.00;;;;;12.94;72.71;99490.44;5033916;28;8836;-58
2023/07/26 05:34:54;;;;;;;;;5.25;5.25;;;;;13.01;72.40;99494.25;5034046;28;8852;-58
2023/07/26 05:37:22;;;;;;;;;6.75;6.00;;;;;13.11;72.33;99489.69;5034275;28;9602;-60
2023/07/26 05:39:51;;;;;;;;;6.25;6.25;;;;;13.19;72.31;99477.25;5034101;28;8855;-58
2023/07/26 05:42:19;;;;;;;;;5.50;5.50;;;;;13.30;72.54;99482.38;5034960;28;8816;-58
2023/07/26 05:44:47;;;;;;;;;8.00;7.75;;;;;13.42;71.57;99473.16;5033946;28;8844;-58
2023/07/26 05:47:14;;;;;;;;;6.50;6.00;;;;;13.51;71.78;99482.13;5034168;28;8844;-60
2023/07/26 05:49:42;;;;;;;;;5.50;4.25;;;;;13.57;71.51;99481.50;5034327;28;8828;-60
2023/07/26 05:52:10;;;;;;;;;7.50;7.50;;;;;13.66;71.75;99473.41;5033249;28;8831;-58
2023/07/26 05:54:37;;;;;;;;;4.50;4.00;;;;;13.75;71.90;99471.66;5034383;28;9855;-58
2023/07/26 05:57:06;;;;;;;;;6.25;6.25;;;;;13.82;71.28;99476.22;5033953;28;8970;-58
2023/07/26 05:59:33;;;;;;;;;10.00;7.00;;;;;13.91;71.32;99478.00;5033877;28;8865;-61
2023/07/26 06:02:01;;;;;;;;;6.00;5.00;;;;;13.97;70.96;99476.53;5033712;28;8845;-59
2023/07/26 06:04:29;;;;;;;;;9.00;7.50;;;;;14.05;70.85;99476.59;5023925;28;8849;-58
2023/07/26 06:06:56;;;;;;;;;6.25;5.50;;;;;14.11;71.08;99473.31;5014004;28;8839;-59
2023/07/26 06:09:25;;;;;;;;;6.75;6.25;;;;;14.18;70.74;99477.09;5015521;28;8803;-58
2023/07/26 06:11:53;;;;;;;;;7.50;6.75;;;;;14.27;70.86;99473.47;5024193;28;8830;-60
2023/07/26 06:14:24;;;;;;;;;6.00;6.00;;;;;14.37;70.90;99476.88;5033117;28;8979;-59
2023/07/26 06:16:52;;;;;;;;;6.75;6.25;;;;;14.46;70.41;99475.91;5033115;28;8890;-58
2023/07/26 06:19:22;;;;;;;;;7.00;6.25;;;;;14.54;70.40;99473.28;5033267;28;8973;-59
2023/07/26 06:21:50;;;;;;;;;7.50;7.00;;;;;14.55;70.74;99477.63;5026752;28;8818;-58
2023/07/26 06:24:17;;;;;;;;;6.00;6.00;;;;;14.52;70.65;99475.28;5012642;28;8834;-59
2023/07/26 06:26:45;;;;;;;;;4.00;3.50;;;;;14.48;70.75;99468.59;5012997;28;8834;-59
2023/07/26 06:29:13;;;;;;;;;8.50;6.00;;;;;14.48;70.96;99471.25;5015659;28;8820;-59
2023/07/26 06:31:42;;;;;;;;;3.75;3.75;;;;;14.53;70.75;99471.59;5031919;28;8809;-58
2023/07/26 06:34:09;;;;;;;;;4.00;4.00;;;;;14.60;71.13;99478.00;5032511;28;8829;-60
2023/07/26 06:36:38;;;;;;;;;6.50;6.00;;;;;14.72;70.67;99468.72;5031076;28;8836;-59
2023/07/26 06:39:05;;;;;;;;;5.00;5.00;;;;;14.86;70.32;99479.66;5029893;28;9503;-58
2023/07/26 06:41:33;;;;;;;;;6.00;6.00;;;;;15.02;70.03;99478.91;5013491;28;8822;-59
2023/07/26 06:44:01;;;;;;;;;3.50;3.50;;;;;15.11;70.25;99473.41;5028091;28;8940;-58
2023/07/26 06:46:29;;;;;;;;;6.75;6.00;;;;;15.18;70.27;99474.44;5032044;28;8840;-61
2023/07/26 06:48:57;;;;;;;;;4.00;4.00;;;;;15.23;69.70;99471.25;5032485;28;9540;-59
2023/07/26 06:51:25;;;;;;;;;1.00;1.00;;;;;15.23;69.86;99476.63;5031998;28;8852;-60
2023/07/26 06:53:52;;;;;;;;;3.50;2.50;;;;;15.17;70.32;99471.94;5021846;28;8848;-60
2023/07/26 06:56:20;;;;;;;;;3.25;3.00;;;;;15.11;70.48;99492.16;5016954;28;8828;-59
2023/07/26 06:58:50;;;;;;;;;3.00;3.00;;;;;15.07;70.85;99488.16;5030100;28;8936;-59
2023/07/26 07:01:18;;;;;;;;;3.00;3.00;;;;;15.09;70.49;99490.69;5014686;28;8850;-59
2023/07/26 07:03:46;;;;;;;;;3.00;3.00;;;;;15.12;70.53;99487.66;5031722;28;8835;-58
2023/07/26 07:06:22;;;;;;;;;4.00;4.00;;;;;15.15;70.65;99496.22;5029285;28;8848;-61
2023/07/26 07:08:50;;;;;;;;;4.00;3.25;;;;;15.23;70.73;99490.88;5022433;28;8818;-59
2023/07/26 07:11:17;;;;;;;;;4.00;4.00;;;;;15.35;69.70;99489.63;5028368;28;8823;-59
2023/07/26 07:13:45;;;;;;;;;1.00;1.00;;;;;15.50;69.75;99489.81;5026908;28;8822;-61
2023/07/26 07:16:13;;;;;;;;;5.00;5.00;;;;;15.65;69.45;99501.59;5022630;28;8820;-60
2023/07/26 07:18:41;;;;;;;;;6.25;6.00;;;;;15.82;68.69;99496.09;5031024;28;8836;-59
2023/07/26 07:21:09;;;;;;;;;3.25;3.25;;;;;15.99;68.68;99507.72;5031300;28;8835;-59
2023/07/26 07:23:37;;;;;;;;;3.00;3.00;;;;;16.04;68.86;99505.34;5031436;28;8846;-60
2023/07/26 07:26:05;;;;;;;;;5.50;4.50;;;;;16.06;68.37;99503.31;5031316;28;8917;-59
2023/07/26 07:28:33;;;;;;;;;4.00;4.00;;;;;16.13;68.13;99504.34;5031116;28;8824;-60
2023/07/26 07:31:01;;;;;;;;;3.50;3.50;;;;;16.23;68.47;99510.41;5031767;28;9572;-59
2023/07/26 07:33:30;;;;;;;;;4.40;4.40;;;;;16.33;67.80;99507.34;5031986;28;8840;-60
2023/07/26 07:35:57;;;;;;;;;3.80;3.80;;;;;16.43;68.28;99508.06;5032001;28;8844;-59
2023/07/26 07:38:25;;;;;;;;;8.80;6.20;;;;;16.51;67.44;99507.22;5032104;28;8863;-59
2023/07/26 07:40:53;;;;;;;;;7.00;7.00;;;;;16.61;67.64;99500.66;5032057;28;8828;-60
2023/07/26 07:43:21;;;;;;;;;8.20;7.00;;;;;16.73;67.37;99499.28;5032665;28;8828;-59
2023/07/26 07:45:49;;;;;;;;;7.00;6.60;;;;;16.82;66.81;99503.63;5032411;28;8836;-60
2023/07/26 07:48:17;;;;;;;;;6.20;5.60;;;;;16.89;67.50;99504.63;5032288;28;8840;-60
2023/07/26 07:50:45;;;;;;;;;6.00;4.80;;;;;16.97;67.41;99507.28;5032358;28;8844;-59
2023/07/26 07:53:13;;;;;;;;;8.20;7.80;;;;;17.02;67.01;99504.88;5032227;28;8813;-59
2023/07/26 07:55:41;;;;;;;;;3.60;1.00;;;;;17.08;66.95;99509.59;5031959;28;8924;-60
2023/07/26 07:58:09;;;;;;;;;4.40;4.40;;;;;17.17;67.09;99511.22;5031241;28;8843;-59
2023/07/26 08:00:37;;;;;;;;;4.80;4.20;;;;;17.27;66.46;99509.19;5030915;28;8852;-59
2023/07/26 08:03:05;;;;;;;;;7.40;7.40;;;;;17.30;66.50;99506.13;5030899;28;9634;-60
2023/07/26 08:05:32;;;;;;;;;6.20;6.00;;;;;17.35;66.22;99495.69;5020289;28;8829;-59
2023/07/26 08:08:00;;;;;;;;;8.20;8.20;;;;;17.41;66.28;99500.41;5028967;28;8853;-59
2023/07/26 08:10:28;;;;;;;;;9.00;9.00;;;;;17.47;66.39;99504.25;5029652;28;8836;-61
2023/07/26 08:12:56;;;;;;;;;9.00;8.20;;;;;17.53;66.47;99501.69;5029883;28;9548;-60
2023/07/26 08:15:24;;;;;;;;;9.80;9.80;;;;;17.61;66.35;99508.88;5029675;28;8812;-61
2023/07/26 08:17:52;;;;;;;;;10.00;7.00;;;;;17.72;65.53;99503.94;5014449;28;8958;-59
2023/07/26 08:20:20;;;;;;;;;8.80;7.80;;;;;17.90;65.52;99499.09;5016391;28;9796;-60
2023/07/26 08:22:48;;;;;;;;;7.80;7.80;;;;;18.06;65.09;99498.97;5033867;28;8840;-59
2023/07/26 08:25:16;;;;;;;;;9.00;7.00;;;;;18.20;64.97;99500.88;5034155;28;8855;-60
2023/07/26 08:27:44;;;;;;;;;12.40;11.60;;;;;18.31;64.72;99507.72;5034967;28;8832;-59
2023/07/26 08:30:12;;;;;;;;;9.60;9.00;;;;;18.37;64.44;99501.63;5020001;28;8826;-60
2023/07/26 08:32:41;;;;;;;;;9.20;9.20;;;;;18.42;64.49;99497.34;5015189;28;8838;-59
2023/07/26 08:35:09;;;;;;;;;12.00;10.00;;;;;18.46;64.34;99508.59;5015279;28;8838;-60
2023/07/26 08:37:37;;;;;;;;;9.20;9.00;;;;;18.54;64.33;99512.06;5016506;28;8918;-60
2023/07/26 08:40:06;;;;;;;;;7.80;6.40;;;;;18.61;64.72;99506.78;5015344;28;8834;-61
2023/07/26 08:42:34;;;;;;;;;9.00;7.40;;;;;18.67;64.18;99514.97;5015647;28;8815;-61
2023/07/26 08:45:03;;;;;;;;;7.00;6.60;;;;;18.71;63.69;99505.50;5016281;28;8841;-61
2023/07/26 08:47:31;;;;;;;;;10.00;9.20;;;;;18.68;64.41;99508.53;5028189;28;8912;-59
2023/07/26 08:49:59;;;;;;;;;6.60;6.40;;;;;18.66;64.27;99502.50;5030257;28;8856;-59
2023/07/26 08:52:27;;;;;;;;;6.40;6.40;;;;;18.70;64.60;99506.53;5031186;28;8904;-61
2023/07/26 08:54:55;;;;;;;;;7.80;7.00;;;;;18.84;64.29;99508.41;5014792;28;9342;-59
2023/07/26 08:57:23;;;;;;;;;8.20;6.60;;;;;18.83;63.93;99506.69;5027015;28;8824;-61
2023/07/26 08:59:51;;;;;;;;;6.40;5.20;;;;;18.71;64.11;99504.66;5028024;28;8822;-58
2023/07/26 09:02:19;;;;;;;;;5.20;4.00;;;;;18.69;64.28;99502.16;5015634;28;8844;-59
2023/07/26 09:04:47;;;;;;;;;7.20;4.80;;;;;18.80;64.58;99499.00;5015511;28;8861;-60
2023/07/26 09:07:15;;;;;;;;;9.80;9.00;;;;;19.01;63.68;99509.91;5026424;28;8830;-60
2023/07/26 09:09:43;;;;;;;;;10.00;9.40;;;;;19.25;63.36;99504.22;5016650;28;8863;-59
2023/07/26 09:12:11;;;;;;;;;7.80;7.00;;;;;19.48;62.96;99491.44;5026611;28;8826;-60
2023/07/26 09:14:39;;;;;;;;;9.00;7.00;;;;;19.51;62.92;99498.34;5014903;28;8846;-59
2023/07/26 09:17:07;;;;;;;;;8.00;7.20;;;;;19.48;63.07;99486.03;5033317;28;8843;-59
2023/07/26 09:19:35;;;;;;;;;7.00;7.00;;;;;19.66;62.17;99494.56;5032762;28;8843;-59
2023/07/26 09:22:03;;;;;;;;;9.60;8.80;;;;;19.90;61.54;99486.09;5032776;28;8838;-60
2023/07/26 09:24:33;;;;;;;;;11.60;11.60;;;;;19.90;62.01;99482.56;5033197;28;8823;-60
2023/07/26 09:27:01;;;;;;;;;10.00;10.00;;;;;19.84;61.49;99486.88;5033292;28;8840;-60
2023/07/26 09:29:29;;;;;;;;;11.00;10.20;;;;;20.01;61.90;99485.59;5033824;28;8828;-59
2023/07/26 09:31:56;;;;;;;;;10.00;10.00;;;;;19.99;61.72;99482.25;5032756;28;8962;-59
2023/07/26 09:34:25;;;;;;;;;7.00;7.00;;;;;19.95;61.78;99486.34;5033052;28;8844;-60
2023/07/26 09:36:53;;;;;;;;;9.60;9.20;;;;;20.03;61.71;99477.28;5033684;28;8844;-60
2023/07/26 09:39:22;;;;;;;;;8.60;8.60;;;;;20.18;61.46;99475.38;5033555;28;8928;-60
2023/07/26 09:41:53;;;;;;;;;12.60;10.80;;;;;20.22;60.89;99474.81;5033622;28;8835;-59
2023/07/26 09:44:21;;;;;;;;;11.60;10.60;;;;;20.10;61.24;99481.75;5033150;28;8931;-59
2023/07/26 09:46:50;;;;;;;;;10.40;9.20;;;;;19.97;61.52;99476.19;5033396;28;8855;-59
2023/07/26 09:49:18;;;;;;;;;12.20;9.80;;;;;20.04;61.71;99482.47;5015793;28;8848;-59
2023/07/26 09:51:53;;;;;;;;;11.20;10.20;;;;;20.25;60.72;99474.41;5013834;28;8802;-59
2023/07/26 09:54:26;;;;;;;;;13.80;12.80;;;;;20.49;60.60;99471.25;5030278;28;8811;-59
2023/07/26 09:57:00;;;;;;;;;7.20;7.20;;;;;20.88;59.66;99477.00;5031924;28;8832;-60
2023/07/26 09:59:28;;;;;;;;;8.00;8.00;;;;;21.39;58.55;99470.16;5032544;28;9814;-60
2023/07/26 10:01:56;;;;;;;;;13.00;11.00;;;;;21.90;57.54;99471.41;5032507;28;8832;-59
2023/07/26 10:04:23;;;;;;;;;10.80;9.60;;;;;22.03;56.91;99474.16;5031286;28;8912;-60
2023/07/26 10:06:51;;;;;;;;;10.80;10.80;;;;;21.99;57.41;99470.19;5033101;28;8862;-60
2023/07/26 10:09:20;;;;;;;;;9.00;9.00;;;;;21.78;58.00;99473.06;5030595;28;8848;-60
2023/07/26 10:11:48;;;;;;;;;10.20;10.20;;;;;21.59;58.47;99465.66;5032366;28;8824;-60
2023/07/26 10:14:15;;;;;;;;;11.20;10.20;;;;;21.34;59.02;99467.25;5032395;28;9807;-59
2023/07/26 10:16:43;;;;;;;;;11.00;10.80;;;;;21.00;60.06;99492.50;5030531;28;8880;-60
2023/07/26 10:19:12;;;;;;;;;12.20;12.20;;;;;20.63;60.67;99529.88;5013218;28;8830;-62
2023/07/26 10:21:41;;;;;;;;;9.20;8.00;;;;;19.68;62.59;99565.47;5013065;28;8849;-60
2023/07/26 10:24:09;;;;;;;;;5.20;4.40;;;;;18.26;65.99;99589.13;5013099;28;9764;-60
2023/07/26 10:26:37;;;;;;;;;4.00;3.80;;;;;17.13;68.31;99597.88;5013932;28;8842;-59
2023/07/26 10:29:05;;;;;;;;;4.00;4.00;;;;;16.32;70.54;99601.59;5028527;28;8970;-59
2023/07/26 10:31:33;;;;;;;;;2.60;2.60;;;;;15.73;71.90;99607.19;5013316;28;8861;-59
2023/07/26 10:34:02;;;;;;;;;4.40;4.00;;;;;15.28;72.30;99597.72;5013277;28;9558;-58
2023/07/26 10:36:30;;;;;;;;;3.00;3.00;;;;;14.89;73.78;99601.84;5013184;28;8854;-59
2023/07/26 10:38:58;;;;;;;;;4.00;3.20;;;;;14.56;74.25;99605.28;5013731;28;8915;-60
2023/07/26 10:41:26;;;;;;;;;2.00;2.00;;;;;14.36;74.47;99601.09;5027572;28;8931;-59
2023/07/26 10:43:57;;;;;;;;;2.60;2.60;;;;;14.23;74.06;99596.13;5032815;28;8954;-59
2023/07/26 10:46:26;;;;;;;;;2.50;2.50;;;;;14.13;74.50;99597.16;5030733;28;8831;-60
2023/07/26 10:48:54;;;;;;;;;0.50;0.00;;;;;14.06;74.79;99588.91;5020441;28;8857;-61
2023/07/26 10:51:22;;;;;;;;;2.50;2.50;;;;;13.98;74.67;99580.78;5012752;28;8852;-59
2023/07/26 10:53:52;;;;;;;;;2.50;2.50;;;;;13.89;74.77;99573.66;5021128;28;8804;-60
2023/07/26 10:56:20;;;;;;;;;1.00;1.00;;;;;13.83;75.14;99576.94;5032449;28;8831;-60
2023/07/26 10:58:48;;;;;;;;;1.00;1.00;;;;;13.80;74.74;99569.22;5032112;28;9551;-59
2023/07/26 11:01:16;;;;;;;;;2.00;2.00;;;;;13.79;74.38;99556.84;5031579;28;8824;-59
2023/07/26 11:03:44;;;;;;;;;1.50;1.50;;;;;13.79;74.52;99564.00;5029934;28;8828;-60
2023/07/26 11:06:12;;;;;;;;;3.00;3.00;;;;;13.80;74.84;99563.00;5031376;28;8863;-59
2023/07/26 11:08:40;;;;;;;;;1.00;1.00;;;;;13.87;74.03;99567.63;5030071;28;8820;-58
2023/07/26 11:11:07;;;;;;;;;1.00;1.00;;;;;13.93;73.98;99568.84;5017792;28;9567;-60
2023/07/26 11:13:35;;;;;;;;;1.00;1.00;;;;;14.00;73.85;99569.91;5011672;28;8838;-59
2023/07/26 11:16:03;;;;;;;;;1.00;1.00;;;;;14.29;73.00;99567.88;5018394;28;8954;-61
2023/07/26 11:18:46;;;;;;;;;1.00;0.50;;;;;14.96;72.22;99560.00;5032040;28;8901;-59
2023/07/26 11:21:14;;;;;;;;;3.00;2.00;;;;;15.99;69.57;99553.38;5032304;28;9745;-61
2023/07/26 11:23:42;;;;;;;;;1.00;1.00;;;;;17.29;66.49;99549.38;5032389;28;8836;-59
2023/07/26 11:26:10;;;;;;;;;3.00;2.60;;;;;18.48;64.72;99545.16;5031980;28;8832;-61
2023/07/26 11:28:39;;;;;;;;;3.20;3.20;;;;;19.70;62.33;99538.25;5032097;28;8961;-60
2023/07/26 11:31:07;;;;;;;;;3.60;3.60;;;;;20.80;60.35;99533.97;5031150;28;8970;-59
2023/07/26 11:33:35;;;;;;;;;1.80;1.80;;;;;21.56;58.77;99521.13;5031027;28;8834;-60
2023/07/26 11:36:03;;;;;;;;;1.00;1.00;;;;;21.91;58.60;99514.63;5031089;28;8864;-60
2023/07/26 11:38:31;;;;;;;;;2.20;2.20;;;;;22.40;58.38;99512.38;5031516;28;8847;-59
2023/07/26 11:40:59;;;;;;;;;2.00;2.00;;;;;22.84;57.38;99517.22;5031573;28;8828;-60
2023/07/26 11:43:27;;;;;;;;;4.00;4.00;;;;;23.23;56.70;99500.88;5032610;28;8850;-60
2023/07/26 11:45:56;;;;;;;;;2.00;2.00;;;;;24.02;55.70;99503.06;5032102;28;8867;-61